South Plainfield, New Jersey
Current Conditions -  °F | °C
As of 6:15 AM on Friday 19 Dec 2014 (Local Time) from KLDJ Reporting Station
Overcast Overcast  
Wind Chill: 35°   Ceiling: 3700
Heat Index: 41°   Visibility: 10mi
Dew Point: 28°   Wind: 9mph
Humidity: 59%   Direction: 320°NW
Pressure: 30.02"   Gusts: NA
Location:  40.58°N, 74.42°W
Report Text: KLDJ 191115Z AUTO 32008KT 10SM OVC037 05/M02 A3002 RMK AO2 T00501025
Loading
Personal Weather Stations






























Interactive Weather Map New forecast layout! Learn more

10-Day Weather Forecast

Advertisements
Track Severe Weather on mobile